sensor_id;sensor_type;location;lat;lon;timestamp;P1;durP1;ratioP1;P2;durP2;ratioP2
24301;SDS011;12421;49.732;20.078;2023-07-24T00:08:32;4.80;;;2.90;;
24301;SDS011;12421;49.732;20.078;2023-07-24T00:18:44;5.60;;;3.10;;
24301;SDS011;12421;49.732;20.078;2023-07-24T00:28:49;6.20;;;2.90;;
24301;SDS011;12421;49.732;20.078;2023-07-24T00:39:14;4.80;;;3.20;;
24301;SDS011;12421;49.732;20.078;2023-07-24T00:49:57;5.80;;;3.40;;
24301;SDS011;12421;49.732;20.078;2023-07-24T01:00:02;5.50;;;3.10;;
24301;SDS011;12421;49.732;20.078;2023-07-24T01:10:06;4.90;;;3.00;;
24301;SDS011;12421;49.732;20.078;2023-07-24T01:20:11;5.60;;;3.20;;
24301;SDS011;12421;49.732;20.078;2023-07-24T01:30:19;4.90;;;3.00;;
24301;SDS011;12421;49.732;20.078;2023-07-24T01:40:24;5.00;;;3.10;;
24301;SDS011;12421;49.732;20.078;2023-07-24T01:50:27;5.30;;;3.10;;
24301;SDS011;12421;49.732;20.078;2023-07-24T02:00:31;4.70;;;3.10;;
24301;SDS011;12421;49.732;20.078;2023-07-24T02:10:36;3.90;;;2.90;;
24301;SDS011;12421;49.732;20.078;2023-07-24T02:20:40;6.20;;;3.30;;
24301;SDS011;12421;49.732;20.078;2023-07-24T02:30:43;8.40;;;3.60;;
24301;SDS011;12421;49.732;20.078;2023-07-24T02:40:46;7.60;;;3.90;;
24301;SDS011;12421;49.732;20.078;2023-07-24T02:50:49;7.90;;;4.60;;
24301;SDS011;12421;49.732;20.078;2023-07-24T03:00:53;7.20;;;4.00;;
24301;SDS011;12421;49.732;20.078;2023-07-24T03:10:56;6.80;;;3.50;;
24301;SDS011;12421;49.732;20.078;2023-07-24T03:21:02;6.80;;;4.40;;
24301;SDS011;12421;49.732;20.078;2023-07-24T03:31:05;5.10;;;3.40;;
24301;SDS011;12421;49.732;20.078;2023-07-24T03:41:09;6.00;;;3.90;;
24301;SDS011;12421;49.732;20.078;2023-07-24T03:51:12;7.10;;;3.70;;
24301;SDS011;12421;49.732;20.078;2023-07-24T04:01:15;7.60;;;3.70;;
24301;SDS011;12421;49.732;20.078;2023-07-24T04:11:19;6.00;;;3.60;;
24301;SDS011;12421;49.732;20.078;2023-07-24T04:21:22;6.30;;;3.40;;
24301;SDS011;12421;49.732;20.078;2023-07-24T04:31:26;7.50;;;4.30;;
24301;SDS011;12421;49.732;20.078;2023-07-24T04:41:30;5.80;;;3.50;;
24301;SDS011;12421;49.732;20.078;2023-07-24T04:51:33;6.80;;;3.80;;
24301;SDS011;12421;49.732;20.078;2023-07-24T05:01:38;5.70;;;4.30;;
24301;SDS011;12421;49.732;20.078;2023-07-24T05:11:41;6.50;;;4.20;;
24301;SDS011;12421;49.732;20.078;2023-07-24T05:21:48;6.60;;;4.30;;
24301;SDS011;12421;49.732;20.078;2023-07-24T05:31:51;6.20;;;4.20;;
24301;SDS011;12421;49.732;20.078;2023-07-24T05:41:54;8.10;;;4.20;;
24301;SDS011;12421;49.732;20.078;2023-07-24T05:51:58;6.10;;;4.60;;
24301;SDS011;12421;49.732;20.078;2023-07-24T06:02:01;7.10;;;4.50;;
24301;SDS011;12421;49.732;20.078;2023-07-24T06:12:04;7.90;;;4.60;;
24301;SDS011;12421;49.732;20.078;2023-07-24T06:22:07;6.30;;;4.60;;
24301;SDS011;12421;49.732;20.078;2023-07-24T06:32:10;7.20;;;4.50;;
24301;SDS011;12421;49.732;20.078;2023-07-24T06:42:14;7.80;;;5.30;;
24301;SDS011;12421;49.732;20.078;2023-07-24T06:52:17;8.20;;;5.10;;
24301;SDS011;12421;49.732;20.078;2023-07-24T07:02:20;9.20;;;5.60;;
24301;SDS011;12421;49.732;20.078;2023-07-24T07:12:24;7.60;;;5.10;;
24301;SDS011;12421;49.732;20.078;2023-07-24T07:22:27;7.30;;;4.90;;
24301;SDS011;12421;49.732;20.078;2023-07-24T07:32:30;9.10;;;5.60;;
24301;SDS011;12421;49.732;20.078;2023-07-24T07:42:33;7.00;;;5.40;;
24301;SDS011;12421;49.732;20.078;2023-07-24T08:02:41;8.10;;;5.30;;
24301;SDS011;12421;49.732;20.078;2023-07-24T08:12:45;6.70;;;5.00;;
24301;SDS011;12421;49.732;20.078;2023-07-24T08:22:48;8.10;;;5.30;;
24301;SDS011;12421;49.732;20.078;2023-07-24T08:32:51;6.10;;;4.80;;
24301;SDS011;12421;49.732;20.078;2023-07-24T08:42:56;7.30;;;4.90;;
24301;SDS011;12421;49.732;20.078;2023-07-24T08:52:59;6.70;;;4.90;;
24301;SDS011;12421;49.732;20.078;2023-07-24T09:03:03;8.50;;;5.30;;
24301;SDS011;12421;49.732;20.078;2023-07-24T09:13:07;9.90;;;5.60;;
24301;SDS011;12421;49.732;20.078;2023-07-24T09:23:14;6.90;;;5.20;;
24301;SDS011;12421;49.732;20.078;2023-07-24T09:43:41;8.30;;;6.00;;
24301;SDS011;12421;49.732;20.078;2023-07-24T09:53:52;11.00;;;7.30;;
24301;SDS011;12421;49.732;20.078;2023-07-24T10:04:00;8.40;;;6.20;;
24301;SDS011;12421;49.732;20.078;2023-07-24T10:14:04;9.10;;;6.90;;
24301;SDS011;12421;49.732;20.078;2023-07-24T10:24:07;9.20;;;7.20;;
24301;SDS011;12421;49.732;20.078;2023-07-24T10:34:11;8.10;;;6.30;;
24301;SDS011;12421;49.732;20.078;2023-07-24T10:44:14;11.80;;;6.80;;
24301;SDS011;12421;49.732;20.078;2023-07-24T10:54:20;11.30;;;6.90;;
24301;SDS011;12421;49.732;20.078;2023-07-24T11:04:24;11.10;;;6.20;;
24301;SDS011;12421;49.732;20.078;2023-07-24T11:14:27;8.20;;;5.90;;
24301;SDS011;12421;49.732;20.078;2023-07-24T11:24:30;8.60;;;6.70;;
24301;SDS011;12421;49.732;20.078;2023-07-24T11:45:03;9.50;;;7.40;;
24301;SDS011;12421;49.732;20.078;2023-07-24T11:55:06;11.10;;;7.80;;
24301;SDS011;12421;49.732;20.078;2023-07-24T12:05:10;10.10;;;7.30;;
24301;SDS011;12421;49.732;20.078;2023-07-24T12:15:14;9.60;;;7.10;;
24301;SDS011;12421;49.732;20.078;2023-07-24T12:25:17;9.10;;;8.00;;
24301;SDS011;12421;49.732;20.078;2023-07-24T12:35:20;9.80;;;7.50;;
24301;SDS011;12421;49.732;20.078;2023-07-24T12:45:24;7.90;;;7.00;;
24301;SDS011;12421;49.732;20.078;2023-07-24T12:55:27;9.30;;;7.00;;
24301;SDS011;12421;49.732;20.078;2023-07-24T13:05:32;10.40;;;7.90;;
24301;SDS011;12421;49.732;20.078;2023-07-24T13:15:35;13.30;;;8.50;;
24301;SDS011;12421;49.732;20.078;2023-07-24T13:25:38;11.50;;;8.10;;
24301;SDS011;12421;49.732;20.078;2023-07-24T13:35:41;13.20;;;8.10;;
24301;SDS011;12421;49.732;20.078;2023-07-24T13:45:45;9.80;;;7.70;;
24301;SDS011;12421;49.732;20.078;2023-07-24T13:55:48;9.30;;;7.30;;
24301;SDS011;12421;49.732;20.078;2023-07-24T14:05:51;12.30;;;7.60;;
24301;SDS011;12421;49.732;20.078;2023-07-24T14:15:54;9.60;;;8.20;;
24301;SDS011;12421;49.732;20.078;2023-07-24T14:25:57;12.30;;;8.30;;
24301;SDS011;12421;49.732;20.078;2023-07-24T14:36:02;10.80;;;7.90;;
24301;SDS011;12421;49.732;20.078;2023-07-24T14:56:10;13.30;;;8.80;;
24301;SDS011;12421;49.732;20.078;2023-07-24T15:06:13;9.40;;;8.00;;
24301;SDS011;12421;49.732;20.078;2023-07-24T15:16:16;10.10;;;8.10;;
24301;SDS011;12421;49.732;20.078;2023-07-24T15:26:21;14.40;;;9.00;;
24301;SDS011;12421;49.732;20.078;2023-07-24T15:36:28;11.90;;;8.80;;
24301;SDS011;12421;49.732;20.078;2023-07-24T15:46:31;12.80;;;8.80;;
24301;SDS011;12421;49.732;20.078;2023-07-24T15:56:35;10.90;;;8.50;;
24301;SDS011;12421;49.732;20.078;2023-07-24T16:06:38;13.70;;;8.40;;
24301;SDS011;12421;49.732;20.078;2023-07-24T16:16:42;12.50;;;8.30;;
24301;SDS011;12421;49.732;20.078;2023-07-24T16:26:46;11.30;;;8.60;;
24301;SDS011;12421;49.732;20.078;2023-07-24T16:36:50;12.00;;;8.80;;
24301;SDS011;12421;49.732;20.078;2023-07-24T16:46:53;15.10;;;9.50;;
24301;SDS011;12421;49.732;20.078;2023-07-24T16:57:15;10.90;;;8.80;;
24301;SDS011;12421;49.732;20.078;2023-07-24T17:07:18;11.00;;;8.80;;
24301;SDS011;12421;49.732;20.078;2023-07-24T17:17:22;11.40;;;9.00;;
24301;SDS011;12421;49.732;20.078;2023-07-24T17:27:25;11.50;;;9.80;;
24301;SDS011;12421;49.732;20.078;2023-07-24T17:37:28;12.60;;;9.70;;
24301;SDS011;12421;49.732;20.078;2023-07-24T17:47:39;13.10;;;10.20;;
24301;SDS011;12421;49.732;20.078;2023-07-24T17:57:42;15.10;;;10.90;;
24301;SDS011;12421;49.732;20.078;2023-07-24T18:07:49;14.60;;;10.00;;
24301;SDS011;12421;49.732;20.078;2023-07-24T18:17:56;19.10;;;10.20;;
24301;SDS011;12421;49.732;20.078;2023-07-24T18:28:00;15.40;;;8.70;;
24301;SDS011;12421;49.732;20.078;2023-07-24T18:38:03;11.20;;;8.80;;
24301;SDS011;12421;49.732;20.078;2023-07-24T18:48:07;12.10;;;8.50;;
24301;SDS011;12421;49.732;20.078;2023-07-24T18:58:12;15.50;;;8.00;;
24301;SDS011;12421;49.732;20.078;2023-07-24T19:08:15;11.60;;;7.30;;
24301;SDS011;12421;49.732;20.078;2023-07-24T19:18:18;13.90;;;7.80;;
24301;SDS011;12421;49.732;20.078;2023-07-24T19:28:22;11.40;;;6.70;;
24301;SDS011;12421;49.732;20.078;2023-07-24T19:38:25;15.10;;;8.90;;
24301;SDS011;12421;49.732;20.078;2023-07-24T19:48:28;10.40;;;5.70;;
24301;SDS011;12421;49.732;20.078;2023-07-24T19:58:32;11.90;;;6.70;;
24301;SDS011;12421;49.732;20.078;2023-07-24T20:08:38;9.20;;;6.10;;
24301;SDS011;12421;49.732;20.078;2023-07-24T20:18:42;10.20;;;5.70;;
24301;SDS011;12421;49.732;20.078;2023-07-24T20:28:46;7.20;;;5.60;;
24301;SDS011;12421;49.732;20.078;2023-07-24T20:38:49;14.90;;;7.60;;
24301;SDS011;12421;49.732;20.078;2023-07-24T20:48:53;9.10;;;5.80;;
24301;SDS011;12421;49.732;20.078;2023-07-24T20:58:56;11.60;;;6.70;;
24301;SDS011;12421;49.732;20.078;2023-07-24T21:08:59;6.60;;;3.90;;
24301;SDS011;12421;49.732;20.078;2023-07-24T21:19:03;7.30;;;4.90;;
24301;SDS011;12421;49.732;20.078;2023-07-24T21:29:06;6.50;;;4.40;;
24301;SDS011;12421;49.732;20.078;2023-07-24T21:39:09;8.00;;;4.40;;
24301;SDS011;12421;49.732;20.078;2023-07-24T21:49:12;7.70;;;4.30;;
24301;SDS011;12421;49.732;20.078;2023-07-24T22:09:44;9.90;;;5.20;;
24301;SDS011;12421;49.732;20.078;2023-07-24T22:19:47;11.70;;;6.00;;
24301;SDS011;12421;49.732;20.078;2023-07-24T22:29:51;10.80;;;6.80;;
24301;SDS011;12421;49.732;20.078;2023-07-24T22:39:56;7.70;;;5.00;;
24301;SDS011;12421;49.732;20.078;2023-07-24T22:49:59;8.40;;;5.30;;
24301;SDS011;12421;49.732;20.078;2023-07-24T23:00:03;8.50;;;5.10;;
24301;SDS011;12421;49.732;20.078;2023-07-24T23:10:07;6.50;;;4.70;;
24301;SDS011;12421;49.732;20.078;2023-07-24T23:20:11;6.80;;;4.80;;
24301;SDS011;12421;49.732;20.078;2023-07-24T23:30:14;7.70;;;5.20;;
24301;SDS011;12421;49.732;20.078;2023-07-24T23:40:17;7.70;;;4.70;;
24301;SDS011;12421;49.732;20.078;2023-07-24T23:50:20;7.90;;;5.60;;
